Time;durP1;ratioP1;P1;durP2;ratioP2;P2;SDS_P1;SDS_P2;PMS_P1;PMS_P2;Temp;Humidity;BMP_temperature;BMP_pressure;BME280_temperature;BME280_humidity;BME280_pressure;Samples;Min_cycle;Max_cycle;Signal;HPM_P1;HPM_P2
2023/02/24 00:01:40;;;;;;;;;;;9.00;99.90;;;;;;6222688;23;19911;-85
2023/02/24 00:04:07;;;;;;;;;;;9.00;99.90;;;;;;6224480;23;20346;-85
2023/02/24 00:06:37;;;;;;;;;;;8.90;99.90;;;;;;6122786;23;19909;-85
2023/02/24 00:09:05;;;;;;;;;;;8.90;99.90;;;;;;6223400;23;19905;-85
2023/02/24 00:11:30;;;;;;;;;;;8.90;99.90;;;;;;6121573;23;19909;-84
2023/02/24 00:13:56;;;;;;;;;;;8.90;99.90;;;;;;6223022;23;20379;-85
2023/02/24 00:16:22;;;;;;;;;;;8.90;99.90;;;;;;6222911;23;19905;-85
2023/02/24 00:18:48;;;;;;;;;;;8.90;99.90;;;;;;6127470;23;19904;-86
2023/02/24 00:21:15;;;;;;;;;;;8.80;99.90;;;;;;6253234;22;20502;-85
2023/02/24 00:23:41;;;;;;;;;;;8.80;99.90;;;;;;6223893;23;20273;-85
2023/02/24 00:26:08;;;;;;;;;;;8.70;99.90;;;;;;6222849;23;19955;-84
2023/02/24 00:28:34;;;;;;;;;;;8.70;99.90;;;;;;6125254;22;19951;-85
2023/02/24 00:31:06;;;;;;;;;;;8.60;99.90;;;;;;6227318;23;19905;-85
2023/02/24 00:33:32;;;;;;;;;;;8.50;99.90;;;;;;6227448;23;19944;-85
2023/02/24 00:36:09;;;;;;;;;;;8.40;99.90;;;;;;6223791;23;20328;-86
2023/02/24 00:38:35;;;;;;;;;;;8.50;99.90;;;;;;6125415;23;20307;-85
2023/02/24 00:41:06;;;;;;;;;;;8.50;99.90;;;;;;6225391;23;19905;-85
2023/02/24 00:43:36;;;;;;;;;;;8.60;99.90;;;;;;6122471;23;19905;-85
2023/02/24 00:46:01;;;;;;;;;;;8.60;99.90;;;;;;6227259;23;19905;-85
2023/02/24 00:48:28;;;;;;;;;;;8.60;99.90;;;;;;6228031;23;19905;-85
2023/02/24 00:50:53;;;;;;;;;;;8.60;99.90;;;;;;6121921;23;19905;-85
2023/02/24 00:53:18;;;;;;;;;;;8.60;99.90;;;;;;6225361;23;19905;-84
2023/02/24 00:55:44;;;;;;;;;;;8.70;99.90;;;;;;6248964;22;19951;-86
2023/02/24 00:58:10;;;;;;;;;;;8.70;99.90;;;;;;6223517;23;20317;-85
2023/02/24 01:00:36;;;;;;;;;;;8.70;99.90;;;;;;6250441;22;20330;-85
2023/02/24 01:03:02;;;;;;;;;;;8.80;99.90;;;;;;6121863;23;19905;-85
2023/02/24 01:05:28;;;;;;;;;;;8.60;99.90;;;;;;6224883;23;20340;-86
2023/02/24 01:07:53;;;;;;;;;;;8.60;99.90;;;;;;6224363;23;19975;-85
2023/02/24 01:10:21;;;;;;;;;;;8.70;99.90;;;;;;6224655;23;19984;-85
2023/02/24 01:12:49;;;;;;;;;;;8.60;99.90;;;;;;6250662;22;19912;-85
2023/02/24 01:15:19;;;;;;;;;;;8.60;99.90;;;;;;6225894;23;19905;-85
2023/02/24 01:17:45;;;;;;;;;;;8.50;99.90;;;;;;6250616;22;19923;-85
2023/02/24 01:20:15;;;;;;;;;;;8.50;99.90;;;;;;6224706;23;19905;-85
2023/02/24 01:22:42;;;;;;;;;;;8.40;99.90;;;;;;6223872;23;19911;-85
2023/02/24 01:25:08;;;;;;;;;;;8.50;99.90;;;;;;6224291;23;19905;-85
2023/02/24 01:27:35;;;;;;;;;;;8.40;99.90;;;;;;6225555;23;19936;-84
2023/02/24 01:30:03;;;;;;;;;;;8.40;99.90;;;;;;6225842;23;19937;-85
2023/02/24 01:32:30;;;;;;;;;;;8.50;99.90;;;;;;6121923;23;19909;-85
2023/02/24 01:34:56;;;;;;;;;;;8.50;99.90;;;;;;6224545;23;20317;-85
2023/02/24 01:37:22;;;;;;;;;;;8.50;99.90;;;;;;6123708;23;19999;-85
2023/02/24 01:39:48;;;;;;;;;;;8.50;99.90;;;;;;6122174;23;19983;-85
2023/02/24 01:42:21;;;;;;;;;;;8.60;99.90;;;;;;6253003;22;19912;-85
2023/02/24 01:44:46;;;;;;;;;;;8.50;99.90;;;;;;6233031;23;19905;-85
2023/02/24 01:47:13;;;;;;;;;;;8.50;99.90;;;;;;6227394;23;19912;-85
2023/02/24 01:49:46;;;;;;;;;;;8.50;99.90;;;;;;6126580;23;19979;-85
2023/02/24 01:52:20;;;;;;;;;;;8.50;99.90;;;;;;6231992;23;19992;-85
2023/02/24 01:54:53;;;;;;;;;;;8.50;99.90;;;;;;6130857;23;19940;-85
2023/02/24 01:57:22;;;;;;;;;;;8.40;99.90;;;;;;6127714;23;19909;-86
2023/02/24 01:59:49;;;;;;;;;;;8.40;99.90;;;;;;6229348;23;19905;-85
2023/02/24 02:02:15;;;;;;;;;;;8.40;99.90;;;;;;6255369;22;20344;-86
2023/02/24 02:04:47;;;;;;;;;;;8.20;99.90;;;;;;6230091;23;19905;-85
2023/02/24 02:07:15;;;;;;;;;;;8.20;99.90;;;;;;6224050;23;19913;-85
2023/02/24 02:09:41;;;;;;;;;;;8.20;99.90;;;;;;6122147;23;19928;-85
2023/02/24 02:12:08;;;;;;;;;;;8.10;99.90;;;;;;6225583;23;19905;-86
2023/02/24 02:14:35;;;;;;;;;;;8.20;99.90;;;;;;6226070;23;20321;-85
2023/02/24 02:17:04;;;;;;;;;;;8.20;99.90;;;;;;6228397;23;19909;-85
2023/02/24 02:19:29;;;;;;;;;;;8.30;99.90;;;;;;6225792;23;19905;-85
2023/02/24 02:21:55;;;;;;;;;;;8.20;99.90;;;;;;6225828;23;19963;-85
2023/02/24 02:24:35;;;;;;;;;;;8.20;99.90;;;;;;6223900;23;19912;-85
2023/02/24 02:27:10;;;;;;;;;;;8.20;99.90;;;;;;6250552;22;20283;-85
2023/02/24 02:29:39;;;;;;;;;;;8.20;99.90;;;;;;6224584;23;19905;-85
2023/02/24 02:32:23;;;;;;;;;;;8.10;99.90;;;;;;6121905;23;20248;-85
2023/02/24 02:34:49;;;;;;;;;;;8.00;99.90;;;;;;6122015;23;19913;-85
2023/02/24 02:37:33;;;;;;;;;;;8.00;99.90;;;;;;6122130;23;19909;-85
2023/02/24 02:40:06;;;;;;;;;;;7.90;99.90;;;;;;6226011;23;19913;-85
2023/02/24 02:42:39;;;;;;;;;;;7.80;99.90;;;;;;6224825;23;20071;-85
2023/02/24 02:45:07;;;;;;;;;;;7.80;99.90;;;;;;6225604;23;19944;-84
2023/02/24 02:47:40;;;;;;;;;;;7.70;99.90;;;;;;6226801;23;19912;-84
2023/02/24 02:50:07;;;;;;;;;;;7.60;99.90;;;;;;6225679;23;20226;-85
2023/02/24 02:52:35;;;;;;;;;;;7.70;99.90;;;;;;6225994;23;19944;-85
2023/02/24 02:55:10;;;;;;;;;;;7.70;99.90;;;;;;6250428;22;20325;-85
2023/02/24 02:57:36;;;;;;;;;;;7.60;99.90;;;;;;6249986;22;19909;-85
2023/02/24 03:00:11;;;;;;;;;;;7.60;99.90;;;;;;6223883;23;19941;-84
2023/02/24 03:02:38;;;;;;;;;;;7.50;99.90;;;;;;6224909;23;20351;-85
2023/02/24 03:05:08;;;;;;;;;;;7.50;99.90;;;;;;6121905;23;20435;-85
2023/02/24 03:07:39;;;;;;;;;;;7.40;99.90;;;;;;6223622;23;19947;-85
2023/02/24 03:10:09;;;;;;;;;;;7.40;99.90;;;;;;6122226;23;19905;-85
2023/02/24 03:12:38;;;;;;;;;;;7.40;99.90;;;;;;6225328;23;19984;-86
2023/02/24 03:15:06;;;;;;;;;;;7.40;99.90;;;;;;6228574;23;19912;-85
2023/02/24 03:17:34;;;;;;;;;;;7.50;99.90;;;;;;6228791;23;20237;-85
2023/02/24 03:20:16;;;;;;;;;;;7.50;99.90;;;;;;6121812;23;20343;-85
2023/02/24 03:22:44;;;;;;;;;;;7.50;99.90;;;;;;6224753;23;19905;-85
2023/02/24 03:25:11;;;;;;;;;;;7.60;99.90;;;;;;6223704;23;19912;-85
2023/02/24 03:27:43;;;;;;;;;;;7.50;99.90;;;;;;6121674;23;19905;-85
2023/02/24 03:30:15;;;;;;;;;;;7.40;99.90;;;;;;6225092;23;19912;-85
2023/02/24 03:32:54;;;;;;;;;;;7.40;99.90;;;;;;6226554;23;19928;-85
2023/02/24 03:35:27;;;;;;;;;;;7.40;99.90;;;;;;6223860;23;20267;-85
2023/02/24 03:37:56;;;;;;;;;;;7.40;99.90;;;;;;6223064;23;19981;-85
2023/02/24 03:40:27;;;;;;;;;;;7.40;99.90;;;;;;6122387;23;20305;-85
2023/02/24 03:42:56;;;;;;;;;;;7.40;99.90;;;;;;6122791;23;19912;-85
2023/02/24 03:45:22;;;;;;;;;;;7.30;99.90;;;;;;6124586;23;19912;-85
2023/02/24 03:47:49;;;;;;;;;;;7.20;99.90;;;;;;6223286;23;19958;-85
2023/02/24 03:50:16;;;;;;;;;;;7.20;99.90;;;;;;6121532;23;19911;-84
2023/02/24 03:52:47;;;;;;;;;;;7.30;99.90;;;;;;6223984;23;20464;-85
2023/02/24 03:55:36;;;;;;;;;;;7.30;99.90;;;;;;6223955;23;19980;-86
2023/02/24 03:58:02;;;;;;;;;;;7.30;99.90;;;;;;6223869;23;19912;-86
2023/02/24 04:00:35;;;;;;;;;;;7.30;99.90;;;;;;6225056;23;19916;-84
2023/02/24 04:03:24;;;;;;;;;;;7.30;99.90;;;;;;6224172;23;19955;-85
2023/02/24 04:06:10;;;;;;;;;;;7.30;99.90;;;;;;6225462;23;19937;-85
2023/02/24 04:08:43;;;;;;;;;;;7.30;99.90;;;;;;6203832;23;19913;-85
2023/02/24 04:11:13;;;;;;;;;;;7.30;99.90;;;;;;6225462;23;20348;-85
2023/02/24 04:13:42;;;;;;;;;;;7.30;99.90;;;;;;6122856;23;19909;-85
2023/02/24 04:16:10;;;;;;;;;;;7.20;99.90;;;;;;6123383;23;19943;-86
2023/02/24 04:18:35;;;;;;;;;;;7.30;99.90;;;;;;6223942;23;19916;-84
2023/02/24 04:21:03;;;;;;;;;;;7.20;99.90;;;;;;6250274;22;19960;-84
2023/02/24 04:23:37;;;;;;;;;;;7.20;99.90;;;;;;6224433;23;19909;-85
2023/02/24 04:26:03;;;;;;;;;;;7.20;99.90;;;;;;6124814;22;19912;-84
2023/02/24 04:28:29;;;;;;;;;;;7.00;99.90;;;;;;6223665;23;19912;-85
2023/02/24 04:31:04;;;;;;;;;;;7.00;99.90;;;;;;6222408;23;19966;-84
2023/02/24 04:33:31;;;;;;;;;;;7.00;99.90;;;;;;6232450;23;19905;-84
2023/02/24 04:35:57;;;;;;;;;;;6.90;99.90;;;;;;6262361;22;19905;-85
2023/02/24 04:38:23;;;;;;;;;;;6.90;99.90;;;;;;6229286;23;19931;-85
2023/02/24 04:40:48;;;;;;;;;;;7.00;99.90;;;;;;6126846;23;19932;-86
2023/02/24 04:43:14;;;;;;;;;;;7.00;99.90;;;;;;6124782;23;19905;-85
2023/02/24 04:45:40;;;;;;;;;;;7.00;99.90;;;;;;6224565;23;20333;-84
2023/02/24 04:48:11;;;;;;;;;;;6.90;99.90;;;;;;6123091;23;19988;-84
2023/02/24 04:50:37;;;;;;;;;;;6.90;99.90;;;;;;6226972;23;19943;-86
2023/02/24 04:53:06;;;;;;;;;;;6.90;99.90;;;;;;6125468;23;19909;-84
2023/02/24 04:55:36;;;;;;;;;;;6.80;99.90;;;;;;6227665;23;19916;-85
2023/02/24 04:58:02;;;;;;;;;;;6.80;99.90;;;;;;6225683;23;19915;-84
2023/02/24 05:00:32;;;;;;;;;;;6.80;99.90;;;;;;6223893;23;19944;-84
2023/02/24 05:03:00;;;;;;;;;;;6.70;99.90;;;;;;6123319;23;19954;-84
2023/02/24 05:05:26;;;;;;;;;;;6.60;99.90;;;;;;6252374;22;19931;-85
2023/02/24 05:07:53;;;;;;;;;;;6.60;99.90;;;;;;6226544;23;20320;-85
2023/02/24 05:10:18;;;;;;;;;;;6.50;99.90;;;;;;6226105;23;19915;-84
2023/02/24 05:12:44;;;;;;;;;;;6.40;99.90;;;;;;6252295;22;19932;-84
2023/02/24 05:15:11;;;;;;;;;;;6.40;99.90;;;;;;6226031;23;19905;-86
2023/02/24 05:17:36;;;;;;;;;;;6.40;99.90;;;;;;6224787;23;19909;-85
2023/02/24 05:22:50;;;;;;;;;;;6.20;99.90;;;;;;6124101;23;19913;-84
2023/02/24 05:25:16;;;;;;;;;;;6.20;99.90;;;;;;6226204;23;19905;-85
2023/02/24 05:27:42;;;;;;;;;;;6.20;99.90;;;;;;6223525;23;20317;-84
2023/02/24 05:30:08;;;;;;;;;;;6.20;99.90;;;;;;6224354;23;19935;-84
2023/02/24 05:32:34;;;;;;;;;;;6.30;99.90;;;;;;6121403;23;20325;-84
2023/02/24 05:35:00;;;;;;;;;;;6.30;99.90;;;;;;6223537;23;19905;-84
2023/02/24 05:37:25;;;;;;;;;;;6.40;99.90;;;;;;6224486;23;19913;-84
2023/02/24 05:39:54;;;;;;;;;;;6.50;99.90;;;;;;6223830;23;19905;-84
2023/02/24 05:42:20;;;;;;;;;;;6.40;99.90;;;;;;6121356;23;19905;-85
2023/02/24 05:44:45;;;;;;;;;;;6.40;99.90;;;;;;6224487;23;19905;-85
2023/02/24 05:47:11;;;;;;;;;;;6.40;99.90;;;;;;6251006;22;19979;-85
2023/02/24 05:49:37;;;;;;;;;;;6.40;99.90;;;;;;6251371;22;19969;-84
2023/02/24 05:52:07;;;;;;;;;;;6.40;99.90;;;;;;6225753;23;19911;-84
2023/02/24 05:54:36;;;;;;;;;;;6.50;99.90;;;;;;6224647;23;19992;-84
2023/02/24 05:57:03;;;;;;;;;;;6.50;99.90;;;;;;6122327;23;19909;-84
2023/02/24 05:59:31;;;;;;;;;;;6.50;99.90;;;;;;6224956;23;20321;-84
2023/02/24 06:02:05;;;;;;;;;;;6.40;99.90;;;;;;6226920;23;19951;-84
2023/02/24 06:04:49;;;;;;;;;;;6.40;99.90;;;;;;6123524;23;19909;-84
2023/02/24 06:07:19;;;;;;;;;;;6.30;99.90;;;;;;6224575;23;19948;-84
2023/02/24 06:09:49;;;;;;;;;;;6.30;99.90;;;;;;6225253;23;20460;-85
2023/02/24 06:12:15;;;;;;;;;;;6.20;99.90;;;;;;6124402;23;19909;-85
2023/02/24 06:14:41;;;;;;;;;;;6.20;99.90;;;;;;6123491;23;19905;-85
2023/02/24 06:17:07;;;;;;;;;;;6.30;99.90;;;;;;6123451;23;19959;-85
2023/02/24 06:19:32;;;;;;;;;;;6.30;99.90;;;;;;6225473;23;19905;-84
2023/02/24 06:22:01;;;;;;;;;;;6.30;99.90;;;;;;6122912;23;19909;-85
2023/02/24 06:24:27;;;;;;;;;;;6.30;99.90;;;;;;6225444;23;19905;-84
2023/02/24 06:26:57;;;;;;;;;;;6.40;99.90;;;;;;6122675;23;19906;-84
2023/02/24 06:29:28;;;;;;;;;;;6.40;99.90;;;;;;6121996;23;19943;-84
2023/02/24 06:31:54;;;;;;;;;;;6.50;99.90;;;;;;6223747;23;19909;-85
2023/02/24 06:34:20;;;;;;;;;;;6.50;99.90;;;;;;6224109;23;19912;-84
2023/02/24 06:36:47;;;;;;;;;;;6.50;99.90;;;;;;6122158;23;20369;-87
2023/02/24 06:39:13;;;;;;;;;;;6.50;99.90;;;;;;6121996;23;19932;-84
2023/02/24 06:41:39;;;;;;;;;;;6.50;99.90;;;;;;6223938;23;20329;-84
2023/02/24 06:44:04;;;;;;;;;;;6.60;99.90;;;;;;6225389;23;20325;-85
2023/02/24 06:46:30;;;;;;;;;;;6.60;99.90;;;;;;6249710;22;19911;-85
2023/02/24 06:48:56;;;;;;;;;;;6.60;99.90;;;;;;6121805;23;19936;-84
2023/02/24 06:51:23;;;;;;;;;;;6.70;99.90;;;;;;6223503;23;19937;-84
2023/02/24 06:53:49;;;;;;;;;;;6.70;99.90;;;;;;6223989;23;19905;-85
2023/02/24 06:56:18;;;;;;;;;;;6.70;99.90;;;;;;6121787;23;19905;-84
2023/02/24 06:58:49;;;;;;;;;;;6.70;99.90;;;;;;6223998;23;19909;-84
2023/02/24 07:01:16;;;;;;;;;;;6.70;99.90;;;;;;6121633;23;19912;-84
2023/02/24 07:04:01;;;;;;;;;;;6.80;99.90;;;;;;6250227;22;19912;-85
2023/02/24 07:06:28;;;;;;;;;;;6.70;99.90;;;;;;6122330;23;19985;-85
2023/02/24 07:08:54;;;;;;;;;;;6.80;99.90;;;;;;6223633;23;19909;-84
2023/02/24 07:11:20;;;;;;;;;;;6.70;99.90;;;;;;6223725;23;19905;-85
2023/02/24 07:13:46;;;;;;;;;;;6.60;99.90;;;;;;6223709;23;19905;-84
2023/02/24 07:16:14;;;;;;;;;;;6.70;99.90;;;;;;6122403;23;19983;-85
2023/02/24 07:18:41;;;;;;;;;;;6.80;99.90;;;;;;6223638;23;19916;-85
2023/02/24 07:21:10;;;;;;;;;;;6.70;99.90;;;;;;6248758;22;20060;-84
2023/02/24 07:23:37;;;;;;;;;;;6.70;99.90;;;;;;6223947;23;20325;-84
2023/02/24 07:26:08;;;;;;;;;;;6.70;99.90;;;;;;6224661;23;19971;-84
2023/02/24 07:28:34;;;;;;;;;;;6.70;99.90;;;;;;6228121;23;19980;-84
2023/02/24 07:31:03;;;;;;;;;;;6.70;99.90;;;;;;6124667;23;19983;-85
2023/02/24 07:33:28;;;;;;;;;;;6.70;99.90;;;;;;6123406;23;20256;-84
2023/02/24 07:35:55;;;;;;;;;;;6.70;99.90;;;;;;6249758;22;19936;-84
2023/02/24 07:38:21;;;;;;;;;;;6.70;99.90;;;;;;6249769;22;19909;-84
2023/02/24 07:40:48;;;;;;;;;;;6.80;99.90;;;;;;6122815;23;19908;-84
2023/02/24 07:43:14;;;;;;;;;;;6.90;99.90;;;;;;6223796;23;20492;-84
2023/02/24 07:45:40;;;;;;;;;;;7.00;99.90;;;;;;6121795;23;20263;-84
2023/02/24 07:48:06;;;;;;;;;;;7.00;99.90;;;;;;6223417;23;19909;-85
2023/02/24 07:50:32;;;;;;;;;;;7.10;99.90;;;;;;6223204;23;19905;-84
2023/02/24 07:52:58;;;;;;;;;;;7.10;99.90;;;;;;6248280;22;19943;-84
2023/02/24 07:55:29;;;;;;;;;;;7.20;99.90;;;;;;6223503;23;19905;-85
2023/02/24 07:57:55;;;;;;;;;;;7.20;99.90;;;;;;6223141;23;20059;-85
2023/02/24 08:00:26;;;;;;;;;;;7.20;99.90;;;;;;6223178;23;20248;-84
2023/02/24 08:02:54;;;;;;;;;;;7.30;99.90;;;;;;6223107;23;19905;-84
2023/02/24 08:05:23;;;;;;;;;;;7.20;99.90;;;;;;6223489;23;19955;-84
2023/02/24 08:07:48;;;;;;;;;;;7.20;99.90;;;;;;6120775;23;19913;-85
2023/02/24 08:10:24;;;;;;;;;;;7.20;99.90;;;;;;6223317;23;20333;-84
2023/02/24 08:12:54;;;;;;;;;;;7.20;99.90;;;;;;6121751;23;19911;-84
2023/02/24 08:15:23;;;;;;;;;;;7.20;99.90;;;;;;6249710;22;19912;-85
2023/02/24 08:17:51;;;;;;;;;;;7.10;99.90;;;;;;6223683;23;19916;-84
2023/02/24 08:22:45;;;;;;;;;;;7.10;99.90;;;;;;6122373;23;20241;-84
2023/02/24 08:25:17;;;;;;;;;;;7.20;99.90;;;;;;6248374;22;19905;-85
2023/02/24 08:27:42;;;;;;;;;;;7.30;99.90;;;;;;6222749;23;20272;-84
2023/02/24 08:30:14;;;;;;;;;;;7.40;99.90;;;;;;6121407;23;19909;-87
2023/02/24 08:32:45;;;;;;;;;;;7.40;99.90;;;;;;6223150;23;19948;-85
2023/02/24 08:35:15;;;;;;;;;;;7.60;99.90;;;;;;6224289;23;19905;-85
2023/02/24 08:37:45;;;;;;;;;;;7.70;99.90;;;;;;6122320;23;19909;-86
2023/02/24 08:43:29;;;;;;;;;;;7.70;99.90;;;;;;6121418;23;19905;-87
2023/02/24 08:46:17;;;;;;;;;;;7.60;99.90;;;;;;6251443;22;19919;-85
2023/02/24 08:48:45;;;;;;;;;;;7.50;99.90;;;;;;6222429;23;19905;-86
2023/02/24 08:51:21;;;;;;;;;;;7.40;99.90;;;;;;6224263;23;19905;-86
2023/02/24 08:53:47;;;;;;;;;;;7.40;99.90;;;;;;6223525;23;19905;-85
2023/02/24 08:56:22;;;;;;;;;;;7.40;99.90;;;;;;6223430;23;19911;-85
2023/02/24 08:58:48;;;;;;;;;;;7.40;99.90;;;;;;6121281;23;20477;-86
2023/02/24 09:01:22;;;;;;;;;;;7.50;99.90;;;;;;6222496;23;20348;-86
2023/02/24 09:03:49;;;;;;;;;;;7.30;99.90;;;;;;6120984;23;19936;-85
2023/02/24 09:06:15;;;;;;;;;;;7.40;99.90;;;;;;6222311;23;19958;-85
2023/02/24 09:08:42;;;;;;;;;;;7.50;99.90;;;;;;6224885;23;19909;-85
2023/02/24 09:11:08;;;;;;;;;;;7.60;99.90;;;;;;6120637;23;19924;-86
2023/02/24 09:13:50;;;;;;;;;;;7.70;99.90;;;;;;6121877;23;19905;-86
2023/02/24 09:16:19;;;;;;;;;;;7.70;99.90;;;;;;6223294;23;19917;-85
2023/02/24 09:19:13;;;;;;;;;;;7.70;99.90;;;;;;6224413;23;19915;-86
2023/02/24 09:24:25;;;;;;;;;;;7.70;99.90;;;;;;6133442;23;19912;-86
2023/02/24 09:26:57;;;;;;;;;;;7.60;99.90;;;;;;6122102;23;19905;-85
2023/02/24 09:29:47;;;;;;;;;;;7.80;99.90;;;;;;6122183;23;19984;-87
2023/02/24 09:32:13;;;;;;;;;;;7.80;99.90;;;;;;6121918;23;19905;-86
2023/02/24 09:34:42;;;;;;;;;;;7.70;99.90;;;;;;6225529;23;19936;-84
2023/02/24 09:37:23;;;;;;;;;;;7.90;99.90;;;;;;6223747;23;19912;-84
2023/02/24 09:42:27;;;;;;;;;;;8.00;99.90;;;;;;6122360;23;19931;-84
2023/02/24 09:44:54;;;;;;;;;;;7.80;99.90;;;;;;6122098;23;19911;-83
2023/02/24 09:47:38;;;;;;;;;;;7.70;99.90;;;;;;6223779;23;20350;-84
2023/02/24 09:50:12;;;;;;;;;;;7.70;99.90;;;;;;6224450;23;19905;-86
2023/02/24 09:52:42;;;;;;;;;;;7.70;99.90;;;;;;6224400;23;19916;-84
2023/02/24 09:55:23;;;;;;;;;;;7.80;99.90;;;;;;6123167;23;19915;-84
2023/02/24 10:00:50;;;;;;;;;;;8.00;99.90;;;;;;6123605;23;20362;-84
2023/02/24 10:03:40;;;;;;;;;;;8.40;99.90;;;;;;6225176;23;19905;-84
2023/02/24 10:06:12;;;;;;;;;;;8.40;99.90;;;;;;6224781;23;20022;-85
2023/02/24 10:08:41;;;;;;;;;;;8.30;99.90;;;;;;6121390;23;19921;-84
2023/02/24 10:11:08;;;;;;;;;;;8.30;99.90;;;;;;6223236;23;20352;-85
2023/02/24 10:13:36;;;;;;;;;;;8.20;99.90;;;;;;6124091;23;19905;-85
2023/02/24 10:16:04;;;;;;;;;;;8.30;99.90;;;;;;6234207;23;19905;-85
2023/02/24 10:18:38;;;;;;;;;;;8.10;99.90;;;;;;6129127;23;19916;-84
2023/02/24 10:21:15;;;;;;;;;;;8.10;99.90;;;;;;6224026;23;19905;-84
2023/02/24 10:24:01;;;;;;;;;;;8.00;99.90;;;;;;6226742;23;19952;-85
2023/02/24 10:26:43;;;;;;;;;;;8.10;99.90;;;;;;6125278;23;19943;-84
2023/02/24 10:29:21;;;;;;;;;;;8.10;99.90;;;;;;6229215;23;19911;-86
2023/02/24 10:31:56;;;;;;;;;;;8.00;99.90;;;;;;6128629;23;19940;-84
2023/02/24 10:34:30;;;;;;;;;;;8.10;99.90;;;;;;6230071;23;19912;-85
2023/02/24 10:37:19;;;;;;;;;;;8.00;99.90;;;;;;6229092;23;19909;-86
2023/02/24 10:39:48;;;;;;;;;;;8.00;99.90;;;;;;6228284;23;19905;-86
2023/02/24 10:42:26;;;;;;;;;;;8.00;99.90;;;;;;6228224;23;19936;-85
2023/02/24 10:45:10;;;;;;;;;;;7.90;99.90;;;;;;6230008;23;19913;-85
2023/02/24 10:47:39;;;;;;;;;;;7.80;99.90;;;;;;6124192;23;20329;-83
2023/02/24 10:50:42;;;;;;;;;;;7.80;99.90;;;;;;6252559;22;20240;-83
2023/02/24 10:53:24;;;;;;;;;;;7.90;99.90;;;;;;6224653;23;20364;-85
2023/02/24 10:56:00;;;;;;;;;;;7.90;99.90;;;;;;6226436;23;20007;-84
2023/02/24 10:58:36;;;;;;;;;;;7.90;99.90;;;;;;6124459;23;19909;-85
2023/02/24 11:01:16;;;;;;;;;;;7.90;99.90;;;;;;6225088;23;19939;-86
2023/02/24 11:04:21;;;;;;;;;;;7.90;99.90;;;;;;6225660;23;19913;-84
2023/02/24 11:06:54;;;;;;;;;;;7.80;99.90;;;;;;6225433;23;19932;-83
2023/02/24 11:17:49;;;;;;;;;;;7.50;99.90;;;;;;6122281;23;20249;-85
2023/02/24 11:20:18;;;;;;;;;;;7.40;99.90;;;;;;6123619;23;20287;-86
2023/02/24 11:22:46;;;;;;;;;;;7.30;99.90;;;;;;6226232;23;20279;-85
2023/02/24 11:25:15;;;;;;;;;;;7.20;99.90;;;;;;6225141;23;19905;-84
2023/02/24 11:27:41;;;;;;;;;;;7.20;99.90;;;;;;6123835;23;19905;-83
2023/02/24 11:30:33;;;;;;;;;;;7.20;99.90;;;;;;6224507;23;19958;-85
2023/02/24 11:33:01;;;;;;;;;;;7.20;99.90;;;;;;6223682;23;19983;-85
2023/02/24 11:35:46;;;;;;;;;;;7.10;99.90;;;;;;6121913;23;19905;-85
2023/02/24 11:38:16;;;;;;;;;;;7.20;99.90;;;;;;6222824;23;19965;-84
2023/02/24 11:40:44;;;;;;;;;;;7.00;99.90;;;;;;6224252;23;19905;-85
2023/02/24 11:43:17;;;;;;;;;;;7.10;99.90;;;;;;6121866;23;19912;-85
2023/02/24 11:45:48;;;;;;;;;;;7.10;99.90;;;;;;6226898;23;20340;-86
2023/02/24 11:48:18;;;;;;;;;;;7.20;99.90;;;;;;6225434;23;19905;-86
2023/02/24 11:50:49;;;;;;;;;;;7.00;99.90;;;;;;6121415;23;19905;-84
2023/02/24 11:53:24;;;;;;;;;;;6.80;99.90;;;;;;6224069;23;20278;-85
2023/02/24 11:55:57;;;;;;;;;;;6.80;99.90;;;;;;6123236;23;19975;-85
2023/02/24 11:58:32;;;;;;;;;;;6.80;99.90;;;;;;6120253;23;19921;-81
2023/02/24 12:01:03;;;;;;;;;;;6.60;99.90;;;;;;6217237;23;19905;-82
2023/02/24 12:03:53;;;;;;;;;;;6.60;99.90;;;;;;6123920;23;19906;-82
2023/02/24 12:06:38;;;;;;;;;;;6.50;99.90;;;;;;6225216;23;19958;-80
2023/02/24 12:12:30;;;;;;;;;;;6.20;99.90;;;;;;6134929;22;19912;-81
2023/02/24 12:15:44;;;;;;;;;;;;;;;;;;;;;
2023/02/24 12:27:06;;;;;;;;;;;6.10;99.90;;;;;;6123349;23;19950;-81
2023/02/24 12:30:13;;;;;;;;;;;6.10;99.90;;;;;;6213850;23;19950;-82
2023/02/24 13:48:19;;;;;;;;;;;5.60;99.90;;;;;;6154562;23;19939;-81
2023/02/24 13:50:59;;;;;;;;;;;5.60;99.90;;;;;;6105986;23;19905;-85
2023/02/24 14:02:08;;;;;;;;;;;;;;;;;;;;;
2023/02/24 14:04:34;;;;;;;;;;;5.70;99.90;;;;;;6097667;23;19940;-83
2023/02/24 14:07:02;;;;;;;;;;;5.80;99.90;;;;;;6087885;23;20321;-83
2023/02/24 14:09:31;;;;;;;;;;;5.60;99.90;;;;;;6072020;23;19905;-83
2023/02/24 14:11:57;;;;;;;;;;;5.60;99.90;;;;;;6091254;23;19945;-81
2023/02/24 14:14:29;;;;;;;;;;;5.70;99.90;;;;;;6070001;23;19906;-81
2023/02/24 14:17:27;;;;;;;;;;;5.70;99.90;;;;;;6066156;23;19914;-81
2023/02/24 14:22:54;;;;;;;;;;;5.80;99.90;;;;;;6079418;23;19977;-82
2023/02/24 14:25:22;;;;;;;;;;;5.90;99.90;;;;;;6066545;23;20341;-83
2023/02/24 14:27:49;;;;;;;;;;;5.80;99.90;;;;;;6090366;23;19917;-83
2023/02/24 14:30:30;;;;;;;;;;;5.70;99.90;;;;;;6069514;23;19906;-85
2023/02/24 14:32:55;;;;;;;;;;;5.70;99.90;;;;;;6068597;23;19954;-83
2023/02/24 14:35:31;;;;;;;;;;;5.70;99.90;;;;;;6067542;23;19909;-85
2023/02/24 14:37:57;;;;;;;;;;;5.70;99.90;;;;;;6069082;23;20253;-85
2023/02/24 14:40:25;;;;;;;;;;;5.80;99.90;;;;;;6091756;23;19910;-82
2023/02/24 14:42:53;;;;;;;;;;;5.70;99.90;;;;;;6066849;23;19912;-81
2023/02/24 14:45:51;;;;;;;;;;;5.80;99.90;;;;;;6070350;23;19906;-85
2023/02/24 14:54:48;;;;;;;;;;;;;;;;;;;;;
2023/02/24 14:57:54;;;;;;;;;;;5.70;99.90;;;;;;6125129;23;19991;-85
2023/02/24 15:00:36;;;;;;;;;;;5.70;99.90;;;;;;6098956;23;19912;-86
2023/02/24 15:09:50;;;;;;;;;;;5.50;99.90;;;;;;6156356;23;19968;-84
2023/02/24 15:24:18;;;;;;;;;;;5.60;99.90;;;;;;6155908;23;20420;-83
2023/02/24 15:27:12;;;;;;;;;;;5.50;99.90;;;;;;6155731;23;20012;-83
2023/02/24 15:30:07;;;;;;;;;;;5.50;99.90;;;;;;6114249;23;20241;-83
2023/02/24 15:35:58;;;;;;;;;;;5.50;99.90;;;;;;6132674;23;19909;-83
2023/02/24 15:41:14;;;;;;;;;;;5.50;99.90;;;;;;6124504;23;20289;-82
2023/02/24 15:44:22;;;;;;;;;;;5.60;99.90;;;;;;6125449;23;19936;-83
2023/02/24 15:46:45;;;;;;;;;;;5.50;99.90;;;;;;6126967;22;20320;-83
2023/02/24 15:49:46;;;;;;;;;;;5.60;99.90;;;;;;6122721;23;20425;-83
2023/02/24 15:52:12;;;;;;;;;;;5.70;99.90;;;;;;6124761;23;19905;-83
2023/02/24 17:57:40;;;;;;;;;;;6.20;99.90;;;;;;6166777;22;19921;-86
2023/02/24 18:00:07;;;;;;;;;;;6.20;99.90;;;;;;6120743;23;19958;-86
2023/02/24 18:02:32;;;;;;;;;;;6.10;99.90;;;;;;6096284;23;19912;-86
2023/02/24 18:04:58;;;;;;;;;;;6.00;99.90;;;;;;6120553;23;20328;-86
2023/02/24 18:07:24;;;;;;;;;;;6.00;99.90;;;;;;6122256;23;19949;-87
2023/02/24 18:09:49;;;;;;;;;;;5.90;99.90;;;;;;6122588;23;19905;-86
2023/02/24 18:12:17;;;;;;;;;;;5.90;99.90;;;;;;6097557;23;20217;-87
2023/02/24 18:14:43;;;;;;;;;;;6.00;99.90;;;;;;6096221;23;19940;-88
2023/02/24 18:17:09;;;;;;;;;;;6.20;99.90;;;;;;6122031;23;19948;-87
2023/02/24 18:19:34;;;;;;;;;;;6.30;99.90;;;;;;6097046;23;19909;-86
2023/02/24 18:22:00;;;;;;;;;;;6.40;99.90;;;;;;6121843;23;20329;-87
2023/02/24 18:24:25;;;;;;;;;;;6.40;99.90;;;;;;6120625;23;19912;-87
2023/02/24 18:26:50;;;;;;;;;;;6.50;99.90;;;;;;6096296;23;19905;-87
2023/02/24 18:29:16;;;;;;;;;;;6.60;99.90;;;;;;6122023;23;19955;-88
2023/02/24 18:31:41;;;;;;;;;;;6.60;99.90;;;;;;6120672;23;20324;-86
2023/02/24 18:34:07;;;;;;;;;;;6.50;99.90;;;;;;6096359;23;19905;-87
2023/02/24 18:36:32;;;;;;;;;;;6.60;99.90;;;;;;6095983;23;19905;-85
2023/02/24 18:38:59;;;;;;;;;;;6.60;99.90;;;;;;6096309;23;19998;-86
2023/02/24 18:41:24;;;;;;;;;;;6.40;99.90;;;;;;6096398;23;19955;-88
2023/02/24 18:43:50;;;;;;;;;;;6.30;99.90;;;;;;6096207;23;20260;-86
2023/02/24 18:46:17;;;;;;;;;;;6.20;99.90;;;;;;6096169;23;19905;-86
2023/02/24 18:48:43;;;;;;;;;;;6.20;99.90;;;;;;6096328;23;19984;-87
2023/02/24 18:51:09;;;;;;;;;;;6.10;99.90;;;;;;6121335;23;19912;-86
2023/02/24 18:53:35;;;;;;;;;;;6.10;99.90;;;;;;6120571;23;19962;-86
2023/02/24 18:56:02;;;;;;;;;;;6.10;99.90;;;;;;6096218;23;19955;-86
2023/02/24 18:58:28;;;;;;;;;;;6.10;99.90;;;;;;6123175;23;19917;-85
2023/02/24 19:00:53;;;;;;;;;;;6.20;99.90;;;;;;6097986;23;19905;-88
2023/02/24 19:03:19;;;;;;;;;;;6.30;99.90;;;;;;6095986;23;19905;-88
2023/02/24 19:05:44;;;;;;;;;;;6.30;99.90;;;;;;6096211;23;20378;-87
2023/02/24 19:08:10;;;;;;;;;;;6.40;99.90;;;;;;6096226;23;19991;-85
2023/02/24 19:10:39;;;;;;;;;;;6.40;99.90;;;;;;6096147;23;20397;-88
2023/02/24 19:13:07;;;;;;;;;;;6.40;99.90;;;;;;6095965;23;20363;-85
2023/02/24 19:15:34;;;;;;;;;;;6.30;99.90;;;;;;6095835;23;19905;-87
2023/02/24 19:17:59;;;;;;;;;;;6.20;99.90;;;;;;6095939;23;20294;-87
2023/02/24 19:20:25;;;;;;;;;;;6.00;99.90;;;;;;6095966;23;19933;-86
2023/02/24 19:22:50;;;;;;;;;;;5.90;99.90;;;;;;6095795;23;19905;-88
2023/02/24 19:25:16;;;;;;;;;;;5.80;99.90;;;;;;6096062;23;19905;-88
2023/02/24 19:27:41;;;;;;;;;;;5.80;99.90;;;;;;6121648;23;19912;-87
2023/02/24 19:30:07;;;;;;;;;;;5.60;99.90;;;;;;6096035;23;19909;-86
2023/02/24 19:32:33;;;;;;;;;;;5.50;99.90;;;;;;6095842;23;20241;-86